Time;durP1;ratioP1;P1;durP2;ratioP2;P2;SDS_P1;SDS_P2;PMS_P1;PMS_P2;Temp;Humidity;BMP_temperature;BMP_pressure;BME280_temperature;BME280_humidity;BME280_pressure;Samples;Min_cycle;Max_cycle;Signal;HPM_P1;HPM_P2
2021/01/12 00:00:51;;;;;;;28.90;15.60;;;4.70;98.30;;;;;;5149780;23;20508;-82
2021/01/12 00:02:59;;;;;;;28.87;15.60;;;4.70;98.30;;;;;;5149036;23;20530;-82
2021/01/12 00:05:08;;;;;;;31.57;20.40;;;4.70;98.30;;;;;;5147922;23;20511;-82
2021/01/12 00:07:11;;;;;;;34.10;17.37;;;4.70;98.30;;;;;;5140389;23;20996;-81
2021/01/12 00:09:13;;;;;;;24.80;14.37;;;4.70;98.30;;;;;;5147740;23;20447;-81
2021/01/12 00:11:26;;;;;;;29.50;17.37;;;4.70;98.30;;;;;;5140921;23;20532;-82
2021/01/12 00:13:30;;;;;;;30.17;17.30;;;4.80;98.30;;;;;;5148473;23;20451;-81
2021/01/12 00:15:32;;;;;;;25.00;16.33;;;4.80;98.30;;;;;;5139577;23;20979;-82
2021/01/12 00:17:34;;;;;;;34.57;19.00;;;4.80;98.30;;;;;;5139402;23;20458;-81
2021/01/12 00:19:37;;;;;;;24.33;14.17;;;4.80;98.30;;;;;;5147250;23;20456;-82
2021/01/12 00:21:39;;;;;;;29.30;18.67;;;4.80;98.30;;;;;;5139772;23;20481;-82
2021/01/12 00:23:44;;;;;;;25.77;15.73;;;4.90;98.30;;;;;;5148513;23;20482;-81
2021/01/12 00:25:46;;;;;;;33.10;21.27;;;4.90;98.30;;;;;;5140512;23;21044;-82
2021/01/12 00:27:50;;;;;;;24.43;14.97;;;4.90;98.30;;;;;;5148635;23;20975;-82
2021/01/12 00:29:52;;;;;;;36.43;20.90;;;4.90;98.30;;;;;;5140995;23;20979;-80
2021/01/12 00:31:55;;;;;;;26.07;16.03;;;4.90;98.30;;;;;;5140822;23;20453;-82
2021/01/12 00:33:57;;;;;;;33.50;19.10;;;5.00;98.30;;;;;;5149678;23;20503;-82
2021/01/12 00:36:04;;;;;;;26.97;16.10;;;5.00;98.30;;;;;;5141636;23;20537;-81
2021/01/12 00:38:06;;;;;;;26.00;15.00;;;5.00;98.30;;;;;;5148716;23;20459;-82
2021/01/12 00:40:11;;;;;;;30.47;20.20;;;5.00;98.30;;;;;;5149626;23;20744;-82
2021/01/12 00:42:13;;;;;;;30.00;18.90;;;5.10;98.30;;;;;;5141169;23;20459;-82
2021/01/12 00:44:17;;;;;;;35.40;20.90;;;5.10;98.30;;;;;;5141102;23;21027;-82
2021/01/12 00:46:20;;;;;;;36.83;22.00;;;5.10;98.30;;;;;;5149725;23;20953;-82
2021/01/12 00:48:25;;;;;;;32.43;19.47;;;5.10;98.30;;;;;;5149714;23;20466;-82
2021/01/12 00:50:29;;;;;;;31.33;19.87;;;5.10;98.30;;;;;;5149298;23;20470;-82
2021/01/12 00:52:31;;;;;;;34.27;20.47;;;5.20;98.30;;;;;;5140262;23;20453;-82
2021/01/12 00:54:39;;;;;;;28.97;18.23;;;5.20;98.30;;;;;;5140911;23;20481;-82
2021/01/12 00:56:42;;;;;;;26.20;16.53;;;5.20;98.30;;;;;;5140339;23;20480;-82
2021/01/12 00:58:48;;;;;;;27.07;17.07;;;5.30;98.30;;;;;;5147653;23;20766;-82
2021/01/12 01:00:53;;;;;;;23.83;15.50;;;5.30;98.30;;;;;;5140590;23;20462;-81
2021/01/12 01:02:56;;;;;;;38.00;21.17;;;5.30;98.30;;;;;;5148424;23;20448;-82
2021/01/12 01:04:58;;;;;;;31.23;18.87;;;5.30;98.30;;;;;;5142061;23;20754;-82
2021/01/12 01:07:00;;;;;;;31.53;16.60;;;5.30;98.30;;;;;;5148126;23;20452;-82
2021/01/12 01:09:03;;;;;;;29.47;16.40;;;5.30;98.30;;;;;;5149333;23;20538;-81
2021/01/12 01:11:06;;;;;;;22.57;15.77;;;5.30;98.30;;;;;;5149589;23;20479;-82
2021/01/12 01:13:10;;;;;;;28.77;17.23;;;5.40;98.30;;;;;;5149707;23;20477;-82
2021/01/12 01:15:19;;;;;;;28.83;17.10;;;5.40;98.30;;;;;;5149490;23;20451;-82
2021/01/12 01:17:27;;;;;;;31.60;17.40;;;5.40;98.30;;;;;;5148846;23;20429;-82
2021/01/12 01:19:31;;;;;;;23.03;14.20;;;5.50;98.30;;;;;;5148265;23;20459;-82
2021/01/12 01:21:37;;;;;;;34.23;20.63;;;5.50;98.30;;;;;;5149349;23;20443;-82
2021/01/12 01:23:40;;;;;;;23.47;15.00;;;5.50;98.30;;;;;;5149745;23;20454;-82
2021/01/12 01:25:46;;;;;;;22.13;12.40;;;5.60;98.30;;;;;;5140452;23;21178;-82
2021/01/12 01:27:52;;;;;;;20.37;11.67;;;5.60;98.30;;;;;;5149669;23;20488;-82
2021/01/12 01:29:56;;;;;;;26.03;13.73;;;5.60;98.30;;;;;;5149132;23;20444;-82
2021/01/12 01:31:59;;;;;;;21.97;13.13;;;5.60;98.30;;;;;;5150305;23;20530;-82
2021/01/12 01:34:06;;;;;;;26.13;16.07;;;5.70;98.30;;;;;;5151797;23;20462;-82
2021/01/12 01:36:10;;;;;;;22.93;12.73;;;5.70;98.30;;;;;;5152777;23;20455;-83
2021/01/12 01:38:14;;;;;;;20.37;12.03;;;5.70;98.30;;;;;;5152559;23;20426;-83
2021/01/12 01:40:23;;;;;;;19.47;12.40;;;5.70;98.30;;;;;;5152844;23;20434;-83
2021/01/12 01:42:28;;;;;;;25.00;13.87;;;5.70;98.30;;;;;;5153021;23;21091;-83
2021/01/12 01:44:33;;;;;;;22.10;12.73;;;5.70;98.30;;;;;;5152823;23;20799;-83
2021/01/12 01:46:42;;;;;;;16.43;11.80;;;5.70;98.30;;;;;;5152883;23;20462;-82
2021/01/12 01:49:00;;;;;;;18.10;13.10;;;5.70;98.30;;;;;;5154740;23;20505;-82
2021/01/12 01:51:11;;;;;;;22.10;11.90;;;5.70;98.30;;;;;;5155735;23;20475;-82
2021/01/12 01:53:23;;;;;;;23.53;12.57;;;5.70;98.30;;;;;;5144562;23;20549;-82
2021/01/12 01:55:30;;;;;;;22.87;12.30;;;5.70;98.30;;;;;;5151619;23;20451;-83
2021/01/12 01:57:35;;;;;;;15.47;10.07;;;5.70;98.30;;;;;;5141574;23;20442;-82
2021/01/12 01:59:40;;;;;;;22.30;13.07;;;5.70;98.30;;;;;;5139229;23;20464;-82
2021/01/12 02:01:44;;;;;;;16.23;9.97;;;5.80;98.30;;;;;;5149639;23;20452;-82
2021/01/12 02:03:50;;;;;;;21.60;12.67;;;5.80;98.30;;;;;;5141797;23;20431;-82
2021/01/12 02:05:57;;;;;;;23.33;13.30;;;5.80;98.30;;;;;;5141886;23;20460;-82
2021/01/12 02:08:05;;;;;;;17.23;12.90;;;5.80;98.30;;;;;;5149974;23;20448;-82
2021/01/12 02:10:10;;;;;;;16.30;9.97;;;5.80;98.30;;;;;;5149922;23;20510;-82
2021/01/12 02:12:19;;;;;;;22.17;12.77;;;5.80;98.30;;;;;;5150397;23;20901;-81
2021/01/12 02:14:23;;;;;;;20.80;11.50;;;5.80;98.30;;;;;;5150230;23;20526;-81
2021/01/12 02:16:31;;;;;;;15.47;10.33;;;5.80;98.30;;;;;;5150318;23;20467;-82
2021/01/12 02:18:36;;;;;;;21.07;11.50;;;5.90;98.30;;;;;;5150169;23;20447;-81
2021/01/12 02:20:40;;;;;;;15.57;10.20;;;5.80;98.30;;;;;;5150005;23;20507;-82
2021/01/12 02:22:46;;;;;;;16.83;10.77;;;5.80;98.30;;;;;;5142487;23;20424;-82
2021/01/12 02:24:50;;;;;;;15.73;10.33;;;5.80;98.30;;;;;;5150765;23;20422;-81
2021/01/12 02:26:54;;;;;;;16.77;11.77;;;5.80;98.30;;;;;;5150347;23;21003;-83
2021/01/12 02:28:57;;;;;;;14.00;9.43;;;5.80;98.30;;;;;;5150541;23;20496;-83
2021/01/12 02:30:59;;;;;;;18.83;11.30;;;5.80;98.30;;;;;;5150017;23;20517;-82
2021/01/12 02:33:04;;;;;;;16.13;10.60;;;5.80;98.30;;;;;;5141940;23;20459;-82
2021/01/12 02:35:08;;;;;;;17.47;11.80;;;5.80;98.30;;;;;;5151096;23;20830;-82
2021/01/12 02:37:11;;;;;;;15.40;10.53;;;5.80;98.30;;;;;;5151595;23;20554;-83
2021/01/12 02:39:15;;;;;;;16.50;10.50;;;5.80;98.30;;;;;;5142444;23;20434;-82
2021/01/12 02:41:18;;;;;;;18.53;10.73;;;5.80;98.30;;;;;;5152051;23;20506;-82
2021/01/12 02:43:20;;;;;;;17.23;9.97;;;5.80;98.30;;;;;;5151461;23;20436;-82
2021/01/12 02:45:22;;;;;;;17.90;9.70;;;5.80;98.30;;;;;;5152151;23;20467;-82
2021/01/12 02:47:24;;;;;;;16.70;11.20;;;5.80;98.30;;;;;;5141175;23;20493;-82
2021/01/12 02:49:27;;;;;;;18.23;10.40;;;5.80;98.30;;;;;;5151594;23;20448;-83
2021/01/12 02:51:29;;;;;;;13.73;9.57;;;5.80;98.30;;;;;;5143553;23;20502;-83
2021/01/12 02:53:31;;;;;;;20.67;11.30;;;5.80;98.30;;;;;;5152398;23;20444;-82
2021/01/12 02:55:34;;;;;;;14.70;10.00;;;5.80;98.30;;;;;;5152117;23;20452;-82
2021/01/12 02:57:37;;;;;;;13.93;8.90;;;5.80;98.30;;;;;;5143162;23;20452;-81
2021/01/12 03:02:00;;;;;;;18.23;10.30;;;5.80;98.30;;;;;;5150489;23;20422;-82
2021/01/12 03:04:16;;;;;;;15.80;10.30;;;5.80;98.30;;;;;;5149464;23;20447;-82
2021/01/12 03:06:26;;;;;;;15.00;8.70;;;5.90;98.30;;;;;;5149777;23;20460;-82
2021/01/12 03:08:33;;;;;;;11.47;8.10;;;5.90;98.30;;;;;;5150655;23;20485;-83
2021/01/12 03:10:36;;;;;;;13.40;8.50;;;5.90;98.30;;;;;;5150938;23;20454;-82
2021/01/12 03:12:48;;;;;;;14.83;9.20;;;5.90;98.30;;;;;;5150518;23;20452;-82
2021/01/12 03:14:52;;;;;;;12.10;8.00;;;5.90;98.30;;;;;;5150784;23;20452;-82
2021/01/12 03:16:55;;;;;;;13.70;8.30;;;5.90;98.30;;;;;;5142470;23;20856;-82
2021/01/12 03:18:57;;;;;;;11.30;7.60;;;5.90;98.30;;;;;;5149718;23;20452;-81
2021/01/12 03:20:59;;;;;;;12.80;8.50;;;5.90;98.30;;;;;;5150619;23;20432;-81
2021/01/12 03:23:01;;;;;;;13.90;8.30;;;5.90;98.30;;;;;;5150557;23;21001;-83
2021/01/12 03:25:05;;;;;;;17.37;9.00;;;5.90;98.30;;;;;;5151156;23;20741;-82
2021/01/12 03:27:07;;;;;;;11.60;8.33;;;5.90;98.30;;;;;;5151365;23;20832;-81
2021/01/12 03:29:11;;;;;;;11.13;8.20;;;6.00;98.30;;;;;;5150834;23;20468;-82
2021/01/12 03:31:13;;;;;;;16.40;10.47;;;6.00;98.30;;;;;;5151476;23;20453;-83
2021/01/12 03:33:15;;;;;;;13.90;10.10;;;6.00;98.30;;;;;;5143204;23;20452;-82
2021/01/12 03:35:17;;;;;;;16.33;10.30;;;6.00;98.30;;;;;;5151487;23;20843;-82
2021/01/12 03:37:19;;;;;;;13.03;9.20;;;6.00;98.30;;;;;;5143338;23;20451;-82
2021/01/12 03:39:21;;;;;;;17.00;8.77;;;6.00;98.30;;;;;;5151024;23;20459;-82
2021/01/12 03:41:23;;;;;;;15.60;9.80;;;6.00;98.30;;;;;;5151585;23;20712;-82
2021/01/12 03:43:25;;;;;;;13.00;8.23;;;5.90;98.30;;;;;;5142925;23;20430;-83
2021/01/12 03:45:28;;;;;;;16.57;10.60;;;6.00;98.30;;;;;;5151474;23;21093;-83
2021/01/12 03:47:34;;;;;;;14.97;9.33;;;6.00;98.30;;;;;;5142817;23;20779;-83
2021/01/12 03:49:42;;;;;;;13.37;8.50;;;6.00;98.30;;;;;;5143338;23;20483;-82
2021/01/12 03:51:44;;;;;;;15.20;8.93;;;6.00;98.30;;;;;;5144058;23;21016;-81
2021/01/12 03:53:51;;;;;;;12.57;8.70;;;6.00;98.30;;;;;;5151855;23;20521;-82
2021/01/12 03:55:53;;;;;;;16.40;9.87;;;6.00;98.30;;;;;;5143506;23;20462;-82
2021/01/12 03:57:55;;;;;;;14.03;9.00;;;6.00;98.30;;;;;;5152892;23;20444;-83
2021/01/12 03:59:57;;;;;;;15.47;9.03;;;6.00;98.30;;;;;;5153698;23;20487;-83
2021/01/12 04:02:04;;;;;;;12.77;7.80;;;6.00;98.30;;;;;;5153754;23;20529;-82
2021/01/12 04:04:08;;;;;;;9.53;6.63;;;6.00;98.30;;;;;;5150929;23;20442;-83
2021/01/12 04:06:12;;;;;;;9.07;6.37;;;6.00;98.30;;;;;;5143137;23;20461;-83
2021/01/12 04:08:16;;;;;;;7.73;5.57;;;6.00;98.30;;;;;;5142567;23;20448;-82
2021/01/12 04:10:18;;;;;;;9.10;7.13;;;6.10;98.30;;;;;;5142528;23;20496;-82
2021/01/12 04:12:22;;;;;;;9.13;6.17;;;6.10;98.30;;;;;;5143600;23;20438;-82
2021/01/12 04:14:27;;;;;;;10.90;6.53;;;6.10;98.30;;;;;;5151260;23;20999;-82
2021/01/12 04:16:29;;;;;;;11.07;7.40;;;6.10;98.30;;;;;;5149109;23;20444;-82
2021/01/12 04:18:32;;;;;;;11.10;8.17;;;6.10;98.30;;;;;;5150525;23;20476;-82
2021/01/12 04:20:37;;;;;;;11.93;7.57;;;6.10;98.30;;;;;;5142589;23;20545;-82
2021/01/12 04:22:41;;;;;;;12.07;7.50;;;6.10;98.30;;;;;;5150592;23;20954;-82
2021/01/12 04:24:43;;;;;;;9.60;6.80;;;6.10;98.30;;;;;;5142637;23;20423;-83
2021/01/12 04:26:45;;;;;;;10.37;6.27;;;6.10;98.30;;;;;;5151805;23;20429;-83
2021/01/12 04:28:47;;;;;;;7.43;5.77;;;6.10;98.30;;;;;;5150030;23;20462;-82
2021/01/12 04:30:52;;;;;;;7.40;4.93;;;6.00;98.30;;;;;;5142994;23;20536;-83
2021/01/12 04:32:54;;;;;;;8.40;4.87;;;6.00;98.30;;;;;;5150552;23;20426;-83
2021/01/12 04:34:59;;;;;;;6.33;4.60;;;5.90;98.30;;;;;;5151761;23;20480;-82
2021/01/12 04:37:01;;;;;;;7.23;5.00;;;5.90;98.30;;;;;;5151501;23;20438;-82
2021/01/12 04:39:04;;;;;;;6.47;4.50;;;5.90;98.30;;;;;;5143635;23;20449;-82
2021/01/12 04:41:07;;;;;;;6.67;4.10;;;5.90;98.30;;;;;;5153071;23;20475;-83
2021/01/12 04:43:12;;;;;;;6.17;4.70;;;5.90;98.30;;;;;;5151216;23;20623;-82
2021/01/12 04:45:14;;;;;;;5.63;4.40;;;5.90;98.30;;;;;;5152222;23;20935;-82
2021/01/12 04:47:16;;;;;;;6.53;4.53;;;5.90;98.30;;;;;;5152143;23;20791;-82
2021/01/12 04:49:18;;;;;;;9.53;4.73;;;5.90;98.30;;;;;;5152256;23;20452;-83
2021/01/12 04:51:24;;;;;;;7.53;4.43;;;5.90;98.30;;;;;;5152401;23;20454;-83
2021/01/12 04:53:27;;;;;;;9.30;5.80;;;5.90;98.30;;;;;;5151595;23;20463;-83
2021/01/12 04:55:29;;;;;;;7.07;5.10;;;5.90;98.30;;;;;;5150875;23;20910;-82
2021/01/12 04:57:31;;;;;;;10.10;6.87;;;5.90;98.30;;;;;;5150661;23;20452;-84
2021/01/12 04:59:34;;;;;;;9.50;4.70;;;5.90;98.30;;;;;;5142263;23;21230;-84
2021/01/12 05:01:37;;;;;;;6.50;4.30;;;5.80;98.30;;;;;;5142240;23;21030;-84
2021/01/12 05:03:44;;;;;;;5.60;4.03;;;5.80;98.30;;;;;;5148985;23;20456;-84
2021/01/12 05:05:53;;;;;;;3.60;3.00;;;5.80;98.30;;;;;;5151621;23;20427;-83
2021/01/12 05:08:09;;;;;;;4.70;3.33;;;5.80;98.30;;;;;;5150716;23;20438;-83
2021/01/12 05:10:14;;;;;;;4.40;3.30;;;5.80;98.30;;;;;;5151109;23;20488;-83
2021/01/12 05:14:50;;;;;;;4.60;3.20;;;5.80;98.30;;;;;;5131239;23;20483;-83
2021/01/12 05:16:55;;;;;;;4.20;3.10;;;5.70;98.30;;;;;;5151810;23;20803;-83
2021/01/12 05:18:59;;;;;;;5.50;3.27;;;5.70;98.30;;;;;;5151681;23;20438;-83
2021/01/12 05:21:04;;;;;;;4.53;2.53;;;5.70;98.30;;;;;;5152636;23;20451;-83
2021/01/12 05:23:23;;;;;;;4.93;3.20;;;5.70;98.30;;;;;;5152389;23;20427;-85
2021/01/12 05:25:41;;;;;;;9.13;2.80;;;5.70;98.30;;;;;;5153113;23;20480;-82
2021/01/12 05:28:02;;;;;;;3.50;3.20;;;5.70;98.30;;;;;;5151887;23;20430;-83
2021/01/12 05:30:06;;;;;;;3.80;2.53;;;5.70;98.30;;;;;;5149411;23;20945;-82
2021/01/12 05:32:14;;;;;;;5.53;3.20;;;5.70;98.30;;;;;;5150049;23;20456;-83
2021/01/12 05:34:20;;;;;;;3.10;2.80;;;5.70;98.30;;;;;;5150213;23;20473;-82
2021/01/12 05:36:39;;;;;;;;;;;;;;;;;;;;;
2021/01/12 05:39:08;;;;;;;5.67;3.00;;;5.70;98.30;;;;;;5139449;23;20445;-82
2021/01/12 05:41:19;;;;;;;10.83;3.90;;;5.70;98.30;;;;;;5150410;23;20419;-82
2021/01/12 05:43:31;;;;;;;6.40;3.03;;;5.60;98.30;;;;;;5150406;23;20450;-81
2021/01/12 05:45:35;;;;;;;7.40;5.00;;;5.70;98.30;;;;;;5150493;23;20951;-82
2021/01/12 05:47:40;;;;;;;12.80;6.70;;;5.60;98.30;;;;;;5149939;23;20829;-82
2021/01/12 05:49:44;;;;;;;28.27;15.30;;;5.60;98.30;;;;;;5150991;23;20445;-82
2021/01/12 05:51:48;;;;;;;21.30;13.07;;;5.60;98.30;;;;;;5151004;23;20656;-82
2021/01/12 05:54:05;;;;;;;6.07;3.87;;;5.60;98.30;;;;;;5151506;23;20824;-82
2021/01/12 05:56:12;;;;;;;3.00;2.00;;;5.50;98.30;;;;;;5153800;23;20441;-82
2021/01/12 05:58:20;;;;;;;14.90;8.83;;;5.40;98.30;;;;;;5152895;23;20448;-82
2021/01/12 06:00:23;;;;;;;27.50;15.00;;;5.40;98.30;;;;;;5153774;23;20444;-83
2021/01/12 06:02:27;;;;;;;66.10;31.03;;;5.40;98.30;;;;;;5153730;23;20477;-82
2021/01/12 06:04:30;;;;;;;5.87;3.70;;;5.40;98.30;;;;;;5154109;23;20481;-82
2021/01/12 06:06:32;;;;;;;5.23;4.17;;;5.40;98.30;;;;;;5154173;23;20430;-82
2021/01/12 06:08:34;;;;;;;16.57;7.63;;;5.20;98.30;;;;;;5155729;23;20425;-82
2021/01/12 06:10:41;;;;;;;16.63;7.10;;;5.10;98.30;;;;;;5158010;23;20452;-82
2021/01/12 06:12:48;;;;;;;27.77;16.30;;;5.10;98.30;;;;;;5152109;23;20479;-82
2021/01/12 06:14:51;;;;;;;118.63;48.90;;;5.00;98.30;;;;;;5151912;23;20487;-82
2021/01/12 06:16:54;;;;;;;124.77;59.40;;;5.00;98.30;;;;;;5143395;23;20786;-82
2021/01/12 06:19:06;;;;;;;27.17;13.43;;;4.90;98.30;;;;;;5151266;23;20454;-83
2021/01/12 06:21:18;;;;;;;6.53;3.63;;;4.90;98.30;;;;;;5151390;23;20430;-82
2021/01/12 06:23:31;;;;;;;4.37;2.20;;;4.80;98.30;;;;;;5143033;23;20539;-83
2021/01/12 06:25:34;;;;;;;2.80;1.80;;;4.80;98.30;;;;;;5150718;23;20441;-83
2021/01/12 06:27:40;;;;;;;3.40;1.93;;;4.80;98.30;;;;;;5151396;23;21017;-82
2021/01/12 06:29:44;;;;;;;3.20;1.97;;;4.70;98.30;;;;;;5151750;23;20542;-83
2021/01/12 06:31:46;;;;;;;1.80;1.60;;;4.60;98.30;;;;;;5151679;23;21023;-82
2021/01/12 06:33:56;;;;;;;89.77;40.63;;;4.50;98.30;;;;;;5150910;23;20430;-83
2021/01/12 06:36:03;;;;;;;52.77;25.33;;;4.40;98.30;;;;;;5150459;23;20807;-82
2021/01/12 06:38:07;;;;;;;193.90;80.80;;;4.50;98.30;;;;;;5150322;23;20458;-82
2021/01/12 06:40:11;;;;;;;35.87;17.43;;;4.50;98.30;;;;;;5143121;23;20452;-83
2021/01/12 06:42:15;;;;;;;10.37;5.77;;;4.50;98.30;;;;;;5151889;23;20422;-81
2021/01/12 06:44:23;;;;;;;5.10;3.30;;;4.50;98.30;;;;;;5150642;23;21076;-82
2021/01/12 06:46:25;;;;;;;4.90;2.80;;;4.50;98.30;;;;;;5150621;23;20453;-82
2021/01/12 06:48:28;;;;;;;4.77;2.20;;;4.50;98.30;;;;;;5151292;23;20460;-82
2021/01/12 06:50:32;;;;;;;119.33;51.80;;;4.50;98.30;;;;;;5151087;23;20435;-82
2021/01/12 06:52:42;;;;;;;86.90;33.70;;;4.50;98.30;;;;;;5150800;23;20460;-83
2021/01/12 06:54:45;;;;;;;70.17;31.20;;;4.50;98.30;;;;;;5151487;23;20417;-82
2021/01/12 06:56:59;;;;;;;22.90;8.97;;;4.60;98.30;;;;;;5150969;23;21332;-82
2021/01/12 06:59:13;;;;;;;6.63;3.83;;;4.50;98.30;;;;;;5152104;23;20421;-83
2021/01/12 07:01:23;;;;;;;4.67;2.57;;;4.50;98.30;;;;;;5152732;23;20829;-83
2021/01/12 07:03:30;;;;;;;4.23;2.63;;;4.60;98.30;;;;;;5153080;23;21074;-83
2021/01/12 07:05:39;;;;;;;4.80;2.50;;;4.50;98.30;;;;;;5152973;23;20430;-83
2021/01/12 07:07:45;;;;;;;6.63;2.80;;;4.50;98.30;;;;;;5152804;23;20460;-83
2021/01/12 07:09:47;;;;;;;5.53;2.40;;;4.50;98.30;;;;;;5144479;23;22425;-83
2021/01/12 07:11:50;;;;;;;6.97;2.60;;;4.50;98.30;;;;;;5153106;23;20530;-82
2021/01/12 07:13:52;;;;;;;3.47;2.53;;;4.50;98.30;;;;;;5153214;23;20450;-82
2021/01/12 07:15:54;;;;;;;4.30;2.07;;;4.50;98.30;;;;;;5156358;23;20510;-82
2021/01/12 07:18:08;;;;;;;4.40;2.40;;;4.50;98.30;;;;;;5152131;23;20455;-83
2021/01/12 07:20:18;;;;;;;4.30;2.53;;;4.50;98.30;;;;;;5143163;23;20451;-82
2021/01/12 07:22:20;;;;;;;3.10;2.33;;;4.40;98.30;;;;;;5143839;23;20429;-82
2021/01/12 07:24:25;;;;;;;2.73;2.13;;;4.30;98.30;;;;;;5151510;23;20451;-83
2021/01/12 07:26:30;;;;;;;5.13;2.70;;;4.20;98.30;;;;;;5150409;23;20443;-82
2021/01/12 07:28:33;;;;;;;3.30;2.20;;;4.20;98.30;;;;;;5151310;23;20455;-82
2021/01/12 07:30:46;;;;;;;2.33;1.60;;;4.20;98.30;;;;;;5152197;23;20988;-83
2021/01/12 07:32:55;;;;;;;3.77;2.03;;;4.20;98.30;;;;;;5151271;23;20457;-82
2021/01/12 07:35:03;;;;;;;10.03;2.83;;;4.10;98.30;;;;;;5150617;23;20488;-83
2021/01/12 07:37:05;;;;;;;3.83;2.07;;;4.10;98.30;;;;;;5150695;23;20450;-83
2021/01/12 07:39:10;;;;;;;8.13;2.50;;;4.10;98.30;;;;;;5150829;23;20447;-82
2021/01/12 07:41:15;;;;;;;3.53;2.30;;;4.00;98.30;;;;;;5150949;23;20472;-82
2021/01/12 07:43:19;;;;;;;4.27;3.20;;;4.00;98.30;;;;;;5151682;23;20445;-82
2021/01/12 07:45:25;;;;;;;7.23;3.03;;;4.00;98.30;;;;;;5150794;23;20451;-82
2021/01/12 07:47:28;;;;;;;5.80;2.77;;;4.10;98.30;;;;;;5152166;23;20824;-83
2021/01/12 07:49:37;;;;;;;6.68;2.90;;;4.00;98.30;;;;;;5144783;23;20461;-83
2021/01/12 07:51:44;;;;;;;2.70;2.50;;;4.00;98.30;;;;;;5152709;23;20252;-83
2021/01/12 07:53:47;;;;;;;6.60;2.70;;;4.00;98.30;;;;;;5151044;23;20475;-82
2021/01/12 07:55:50;;;;;;;5.70;2.77;;;4.00;98.30;;;;;;5151042;23;20444;-83
2021/01/12 07:57:53;;;;;;;6.85;2.70;;;4.00;98.30;;;;;;5143533;23;20529;-83
2021/01/12 07:59:56;;;;;;;29.25;15.63;;;4.00;98.30;;;;;;5142699;23;20246;-83
2021/01/12 08:02:01;;;;;;;54.50;28.58;;;4.10;98.30;;;;;;5151064;23;20522;-83
2021/01/12 08:04:05;;;;;;;50.83;26.83;;;4.10;98.30;;;;;;5148695;23;20232;-83
2021/01/12 08:06:08;;;;;;;17.03;8.20;;;4.20;98.30;;;;;;5140149;23;20484;-84
2021/01/12 08:08:11;;;;;;;6.30;3.20;;;4.20;98.30;;;;;;5139712;23;20489;-84
2021/01/12 08:10:13;;;;;;;4.77;2.60;;;4.20;98.30;;;;;;5140593;23;20548;-84
2021/01/12 08:12:31;;;;;;;4.23;2.40;;;4.20;98.30;;;;;;5149031;23;20487;-83
2021/01/12 08:14:34;;;;;;;10.30;3.17;;;4.20;98.30;;;;;;5149321;23;21112;-83
2021/01/12 08:16:36;;;;;;;6.60;2.43;;;4.20;98.30;;;;;;5141343;23;20450;-84
2021/01/12 08:18:38;;;;;;;4.67;2.80;;;4.20;98.30;;;;;;5142693;23;20535;-83
2021/01/12 08:20:41;;;;;;;9.07;2.80;;;4.20;98.30;;;;;;5156186;23;20443;-84
2021/01/12 08:22:49;;;;;;;17.77;7.17;;;4.20;98.30;;;;;;5149215;23;20445;-84
2021/01/12 08:24:52;;;;;;;58.57;27.47;;;4.30;98.30;;;;;;5140860;23;20454;-83
2021/01/12 08:26:56;;;;;;;26.53;15.00;;;4.30;98.30;;;;;;5149265;23;20494;-83
2021/01/12 08:28:59;;;;;;;10.57;3.87;;;4.30;98.30;;;;;;5148512;23;20462;-83
2021/01/12 08:31:01;;;;;;;3.10;2.60;;;4.30;98.30;;;;;;5148645;23;20463;-84
2021/01/12 08:33:08;;;;;;;7.18;2.45;;;4.40;98.30;;;;;;5149806;23;20440;-83
2021/01/12 08:35:14;;;;;;;7.97;3.30;;;4.40;98.30;;;;;;5149664;23;20582;-85
2021/01/12 08:37:18;;;;;;;9.27;3.90;;;4.40;98.30;;;;;;5149091;23;20202;-83
2021/01/12 08:39:24;;;;;;;9.10;3.28;;;4.40;98.30;;;;;;5149257;23;20459;-84
2021/01/12 08:41:28;;;;;;;6.32;3.17;;;4.40;98.30;;;;;;5148662;23;20274;-84
2021/01/12 08:43:31;;;;;;;4.40;2.17;;;4.30;98.30;;;;;;5149671;23;20206;-84
2021/01/12 08:45:34;;;;;;;7.93;2.87;;;4.30;98.30;;;;;;5140922;23;20859;-83
2021/01/12 08:47:36;;;;;;;61.03;30.67;;;4.40;98.30;;;;;;5140420;23;21014;-83
2021/01/12 08:50:02;;;;;;;106.88;46.45;;;4.40;98.30;;;;;;5148619;23;20560;-83
2021/01/12 08:52:06;;;;;;;54.50;25.37;;;4.50;98.30;;;;;;5140672;23;20533;-84
2021/01/12 08:54:14;;;;;;;10.40;6.82;;;4.50;98.30;;;;;;5148675;23;20454;-83
2021/01/12 08:58:42;;;;;;;4.87;3.00;;;4.60;98.30;;;;;;5158490;22;20216;-83
2021/01/12 09:00:44;;;;;;;10.50;3.57;;;4.50;98.30;;;;;;5171734;23;20444;-84
2021/01/12 09:02:53;;;;;;;5.93;2.60;;;4.50;98.30;;;;;;5177612;23;20473;-83
2021/01/12 09:05:00;;;;;;;6.33;2.60;;;4.50;98.30;;;;;;5178294;23;20830;-83
2021/01/12 09:07:04;;;;;;;6.43;2.90;;;4.50;98.30;;;;;;5161290;23;20515;-84
2021/01/12 09:09:12;;;;;;;7.10;2.60;;;4.50;98.30;;;;;;5144078;23;20446;-83
2021/01/12 09:11:14;;;;;;;7.90;3.00;;;4.50;98.30;;;;;;5152254;23;20458;-83
2021/01/12 09:13:16;;;;;;;11.60;3.57;;;4.50;98.30;;;;;;5152775;23;20465;-83
2021/01/12 09:15:25;;;;;;;11.57;2.80;;;4.50;98.30;;;;;;5144525;23;20458;-83
2021/01/12 09:17:27;;;;;;;9.03;2.83;;;4.40;98.30;;;;;;5152900;23;20440;-82
2021/01/12 09:19:37;;;;;;;5.67;2.27;;;4.40;98.30;;;;;;5152844;23;20473;-82
2021/01/12 09:21:39;;;;;;;8.30;2.87;;;4.30;98.30;;;;;;5153422;23;20497;-83
2021/01/12 09:23:42;;;;;;;6.10;2.73;;;4.30;98.30;;;;;;5144812;23;20460;-83
2021/01/12 09:25:50;;;;;;;4.73;2.40;;;4.30;98.30;;;;;;5152777;23;20769;-83
2021/01/12 09:27:52;;;;;;;7.57;3.20;;;4.30;98.30;;;;;;5152036;23;20453;-83
2021/01/12 09:29:55;;;;;;;6.40;2.53;;;4.40;98.30;;;;;;5151573;23;20545;-83
2021/01/12 09:31:58;;;;;;;4.80;2.60;;;4.60;98.30;;;;;;5143909;23;20516;-83
2021/01/12 09:34:00;;;;;;;4.10;2.60;;;4.70;98.30;;;;;;5152891;23;20261;-83
2021/01/12 09:36:05;;;;;;;9.73;3.00;;;4.90;98.30;;;;;;5152418;23;20814;-84
2021/01/12 09:38:07;;;;;;;6.73;2.43;;;5.10;98.30;;;;;;5143730;23;20472;-83
2021/01/12 09:40:10;;;;;;;7.80;3.53;;;5.30;98.30;;;;;;5152563;23;20451;-83
2021/01/12 09:42:18;;;;;;;5.70;2.53;;;5.50;98.30;;;;;;5143543;23;20830;-83
2021/01/12 09:44:21;;;;;;;5.67;2.93;;;5.80;98.30;;;;;;5152197;23;20772;-83
2021/01/12 09:46:23;;;;;;;8.50;2.63;;;6.00;98.30;;;;;;5151656;23;20544;-83
2021/01/12 09:48:27;;;;;;;7.00;2.73;;;6.20;98.30;;;;;;5143072;23;20539;-83
2021/01/12 09:50:29;;;;;;;4.37;3.40;;;6.30;98.30;;;;;;5143605;23;20540;-83
2021/01/12 09:52:31;;;;;;;7.57;2.80;;;6.50;98.30;;;;;;5151024;23;20426;-83
2021/01/12 09:54:33;;;;;;;4.50;2.90;;;6.70;98.30;;;;;;5152586;23;20453;-83
2021/01/12 09:56:36;;;;;;;5.60;2.50;;;6.80;98.30;;;;;;5152830;23;20452;-83
2021/01/12 09:58:38;;;;;;;3.50;2.40;;;7.00;98.30;;;;;;5152104;23;20551;-83
2021/01/12 10:00:43;;;;;;;4.67;2.33;;;7.10;98.30;;;;;;5153635;23;20459;-83
2021/01/12 10:02:45;;;;;;;4.33;2.93;;;7.20;98.30;;;;;;5145273;23;20431;-83
2021/01/12 10:04:47;;;;;;;9.30;3.27;;;7.40;98.30;;;;;;5153189;23;20894;-83
2021/01/12 10:06:55;;;;;;;6.57;3.00;;;7.50;98.30;;;;;;5152264;23;20427;-83
2021/01/12 10:08:57;;;;;;;4.27;2.40;;;7.70;98.30;;;;;;5144591;23;20430;-83
2021/01/12 10:11:02;;;;;;;7.87;2.93;;;7.80;98.30;;;;;;5143838;23;20428;-83
2021/01/12 10:13:05;;;;;;;8.13;2.70;;;7.90;98.30;;;;;;5153052;23;20826;-83
2021/01/12 10:15:10;;;;;;;24.03;13.47;;;8.10;98.30;;;;;;5144701;23;20518;-83
2021/01/12 10:17:12;;;;;;;25.47;13.07;;;8.30;98.30;;;;;;5153132;23;20452;-83
2021/01/12 10:19:14;;;;;;;30.37;16.57;;;8.50;98.30;;;;;;5152795;23;20444;-83
2021/01/12 10:21:20;;;;;;;17.90;8.43;;;8.60;98.30;;;;;;5153112;23;20836;-83
2021/01/12 10:23:23;;;;;;;12.87;5.60;;;8.70;98.30;;;;;;5144163;23;20552;-83
2021/01/12 10:25:26;;;;;;;12.67;5.93;;;9.00;98.30;;;;;;5144959;23;20472;-83
2021/01/12 10:27:36;;;;;;;23.30;11.17;;;9.20;98.30;;;;;;5152051;23;20483;-84
2021/01/12 10:29:39;;;;;;;33.03;17.93;;;9.40;98.30;;;;;;5152266;23;20448;-84
2021/01/12 10:31:48;;;;;;;37.97;19.63;;;9.60;98.30;;;;;;5152465;23;20536;-84
2021/01/12 10:33:51;;;;;;;12.10;7.33;;;9.80;98.30;;;;;;5144089;23;20452;-83
2021/01/12 10:35:54;;;;;;;12.90;6.43;;;9.90;98.30;;;;;;5150596;23;20531;-84
2021/01/12 10:37:57;;;;;;;6.80;4.50;;;9.90;98.30;;;;;;5149491;23;20449;-83
2021/01/12 10:40:00;;;;;;;7.27;3.90;;;9.70;98.30;;;;;;5141807;23;20456;-84
2021/01/12 10:42:06;;;;;;;6.43;2.67;;;9.80;98.30;;;;;;5149445;23;20540;-83
2021/01/12 10:44:10;;;;;;;3.30;2.40;;;10.00;98.30;;;;;;5149345;23;20449;-84
2021/01/12 10:46:16;;;;;;;3.87;2.00;;;10.10;98.30;;;;;;5141227;23;20954;-83
2021/01/12 10:48:19;;;;;;;4.33;2.67;;;10.30;98.30;;;;;;5149202;23;20564;-83
2021/01/12 10:50:21;;;;;;;3.90;2.20;;;10.40;98.30;;;;;;5149453;23;20545;-83
2021/01/12 10:52:24;;;;;;;4.80;2.50;;;10.60;98.30;;;;;;5149447;23;20995;-83
2021/01/12 10:54:27;;;;;;;4.60;2.20;;;10.70;98.30;;;;;;5149518;23;20782;-83
2021/01/12 10:56:29;;;;;;;10.23;2.53;;;10.90;98.30;;;;;;5149166;23;20440;-84
2021/01/12 10:58:31;;;;;;;4.70;2.17;;;10.90;98.30;;;;;;5143147;23;20944;-84